createdAt,value
2023-08-05T00:01:47.398Z,6.20
2023-08-05T00:04:34.863Z,5.28
2023-08-05T00:07:22.394Z,5.65
2023-08-05T00:10:12.063Z,5.65
2023-08-05T00:12:59.796Z,7.47
2023-08-05T00:15:47.930Z,4.95
2023-08-05T00:18:36.159Z,6.68
2023-08-05T00:21:24.076Z,6.63
2023-08-05T00:24:12.030Z,5.45
2023-08-05T00:27:00.953Z,5.65
2023-08-05T00:29:48.880Z,6.13
2023-08-05T00:32:37.931Z,7.97
2023-08-05T00:35:25.440Z,5.82
2023-08-05T00:38:13.966Z,6.05
2023-08-05T00:41:01.850Z,6.20
2023-08-05T00:43:50.664Z,5.57
2023-08-05T00:46:38.844Z,5.95
2023-08-05T00:49:26.581Z,7.10
2023-08-05T00:52:15.948Z,5.88
2023-08-05T00:55:03.696Z,5.63
2023-08-05T00:57:51.637Z,5.32
2023-08-05T01:00:40.899Z,6.25
2023-08-05T01:03:28.571Z,6.20
2023-08-05T01:06:19.031Z,5.40
2023-08-05T01:09:06.685Z,5.13
2023-08-05T01:11:54.028Z,6.25
2023-08-05T01:14:41.917Z,5.63
2023-08-05T01:17:31.107Z,5.68
2023-08-05T01:20:21.021Z,5.93
2023-08-05T01:23:15.239Z,5.70
2023-08-05T01:26:05.878Z,5.38
2023-08-05T01:28:54.933Z,6.68
2023-08-05T01:31:43.278Z,5.68
2023-08-05T01:34:31.439Z,6.65
2023-08-05T01:37:21.759Z,6.15
2023-08-05T01:40:11.063Z,7.43
2023-08-05T01:43:01.074Z,8.25
2023-08-05T01:45:48.742Z,6.13
2023-08-05T01:48:36.269Z,12.63
2023-08-05T01:51:23.783Z,6.82
2023-08-05T01:54:11.345Z,7.85
2023-08-05T01:56:58.933Z,6.15
2023-08-05T01:59:47.901Z,8.27
2023-08-05T02:02:35.780Z,7.72
2023-08-05T02:05:23.649Z,6.20
2023-08-05T02:08:11.366Z,7.45
2023-08-05T02:10:59.357Z,7.97
2023-08-05T02:13:47.243Z,9.05
2023-08-05T02:16:36.703Z,7.30
2023-08-05T02:19:24.428Z,8.60
2023-08-05T02:22:12.107Z,9.32
2023-08-05T02:24:59.564Z,8.05
2023-08-05T02:27:49.326Z,7.55
2023-08-05T02:30:38.343Z,7.93
2023-08-05T02:33:27.546Z,7.22
2023-08-05T02:36:15.276Z,7.95
2023-08-05T02:39:02.870Z,8.40
2023-08-05T02:41:51.032Z,7.55
2023-08-05T02:44:38.772Z,10.52
2023-08-05T02:47:26.537Z,10.50
2023-08-05T02:50:16.129Z,9.05
2023-08-05T02:53:04.038Z,8.65
2023-08-05T02:55:51.730Z,8.43
2023-08-05T02:58:40.125Z,7.68
2023-08-05T03:01:27.942Z,24.17
2023-08-05T03:04:15.912Z,10.25
2023-08-05T03:07:05.609Z,9.55
2023-08-05T03:09:53.437Z,9.05
2023-08-05T03:12:41.220Z,9.07
2023-08-05T03:15:30.764Z,7.38
2023-08-05T03:18:22.312Z,7.35
2023-08-05T03:21:10.068Z,8.00
2023-08-05T03:24:00.367Z,7.95
2023-08-05T03:26:49.534Z,10.25
2023-08-05T03:29:38.255Z,8.75
2023-08-05T03:32:29.583Z,7.30
2023-08-05T03:35:18.751Z,10.05
2023-08-05T03:38:08.024Z,9.40
2023-08-05T03:40:57.072Z,10.68
2023-08-05T03:43:44.879Z,11.07
2023-08-05T03:46:32.353Z,11.85
2023-08-05T03:49:20.138Z,10.48
2023-08-05T03:52:09.064Z,10.27
2023-08-05T03:54:56.933Z,11.68
2023-08-05T03:57:47.683Z,10.98
2023-08-05T04:00:36.147Z,10.05
2023-08-05T04:03:24.235Z,10.07
2023-08-05T04:06:13.119Z,9.95
2023-08-05T04:09:00.776Z,10.38
2023-08-05T04:11:50.144Z,11.25
2023-08-05T04:14:40.263Z,10.50
2023-08-05T04:17:28.180Z,11.77
2023-08-05T04:20:16.562Z,10.90
2023-08-05T04:23:05.584Z,11.73
2023-08-05T04:25:54.196Z,12.63
2023-08-05T04:28:42.098Z,13.52
2023-08-05T04:31:31.483Z,11.23
2023-08-05T04:34:19.196Z,10.75
2023-08-05T04:37:20.209Z,11.73
2023-08-05T04:40:08.976Z,11.07
2023-08-05T04:42:56.388Z,11.45
2023-08-05T04:45:43.834Z,13.20
2023-08-05T04:48:32.668Z,11.23
2023-08-05T04:51:20.135Z,12.45
2023-08-05T04:54:07.781Z,11.90
2023-08-05T04:56:55.401Z,11.68
2023-08-05T04:59:42.827Z,11.18
2023-08-05T05:02:30.873Z,12.77
2023-08-05T05:05:20.104Z,11.95
2023-08-05T05:08:07.548Z,11.25
2023-08-05T05:10:55.301Z,11.00
2023-08-05T05:13:44.935Z,11.50
2023-08-05T05:16:32.476Z,13.07
2023-08-05T05:19:19.879Z,13.38
2023-08-05T05:22:09.765Z,13.43
2023-08-05T05:24:57.417Z,9.90
2023-08-05T05:27:44.995Z,11.45
2023-08-05T05:30:33.092Z,10.98
2023-08-05T05:33:20.604Z,11.30
2023-08-05T05:36:08.390Z,9.20
2023-08-05T05:38:57.322Z,9.23
2023-08-05T05:41:44.940Z,8.85
2023-08-05T05:44:32.527Z,9.25
2023-08-05T05:47:20.247Z,8.73
2023-08-05T05:50:08.380Z,8.70
2023-08-05T05:52:55.925Z,7.18
2023-08-05T05:55:46.382Z,7.28
2023-08-05T05:58:36.449Z,8.13
2023-08-05T06:01:24.643Z,9.13
2023-08-05T06:04:12.349Z,6.13
2023-08-05T06:07:02.269Z,5.65
2023-08-05T06:09:49.692Z,9.48
2023-08-05T06:12:39.208Z,5.90
2023-08-05T06:15:27.039Z,6.25
2023-08-05T06:18:14.635Z,5.95
2023-08-05T06:21:02.317Z,6.00
2023-08-05T06:23:50.309Z,5.78
2023-08-05T06:26:37.751Z,7.47
2023-08-05T06:29:26.783Z,6.15
2023-08-05T06:32:14.687Z,5.75
2023-08-05T06:35:02.296Z,5.55
2023-08-05T06:37:49.892Z,5.97
2023-08-05T06:40:37.540Z,6.30
2023-08-05T06:43:26.856Z,4.97
2023-08-05T06:46:16.011Z,5.55
2023-08-05T06:49:03.802Z,7.03
2023-08-05T06:51:53.311Z,5.07
2023-08-05T06:54:42.832Z,5.30
2023-08-05T06:57:30.725Z,6.15
2023-08-05T07:00:18.985Z,4.88
2023-08-05T07:03:07.851Z,6.43
2023-08-05T07:05:57.435Z,4.35
2023-08-05T07:08:45.192Z,5.38
2023-08-05T07:11:33.127Z,5.80
2023-08-05T07:14:20.876Z,5.35
2023-08-05T07:17:08.982Z,6.13
2023-08-05T07:19:58.053Z,6.07
2023-08-05T07:22:45.365Z,5.72
2023-08-05T07:25:32.926Z,5.82
2023-08-05T07:28:20.711Z,5.65
2023-08-05T07:31:11.356Z,6.95
2023-08-05T07:33:59.027Z,8.05
2023-08-05T07:36:48.114Z,6.07
2023-08-05T07:39:35.899Z,6.03
2023-08-05T07:42:26.447Z,9.52
2023-08-05T07:45:17.936Z,7.28
2023-08-05T07:48:09.647Z,8.00
2023-08-05T07:50:57.534Z,9.20
2023-08-05T07:53:46.385Z,8.45
2023-08-05T07:56:36.679Z,8.05
2023-08-05T07:59:26.255Z,8.63
2023-08-05T08:02:13.620Z,8.15
2023-08-05T08:05:04.678Z,7.95
2023-08-05T08:07:52.617Z,8.43
2023-08-05T08:10:41.517Z,9.68
2023-08-05T08:13:29.116Z,8.07
2023-08-05T08:16:17.433Z,7.63
2023-08-05T08:19:05.957Z,10.90
2023-08-05T08:21:53.587Z,8.27
2023-08-05T08:24:41.494Z,10.35
2023-08-05T08:27:30.372Z,9.07
2023-08-05T08:30:18.608Z,9.90
2023-08-05T08:33:06.431Z,11.23
2023-08-05T08:35:54.590Z,10.18
2023-08-05T08:38:42.411Z,9.85
2023-08-05T08:41:31.746Z,10.93
2023-08-05T08:44:22.712Z,10.85
2023-08-05T08:47:10.190Z,10.40
2023-08-05T08:49:58.505Z,7.28
2023-08-05T08:52:48.933Z,8.02
2023-08-05T08:55:38.250Z,8.50
2023-08-05T08:58:25.869Z,7.93
2023-08-05T09:01:17.637Z,7.95
2023-08-05T09:04:08.401Z,9.68
2023-08-05T09:06:57.793Z,7.28
2023-08-05T09:09:48.776Z,7.10
2023-08-05T09:12:37.133Z,8.32
2023-08-05T09:15:24.907Z,7.07
2023-08-05T09:18:13.877Z,10.18
2023-08-05T09:21:03.346Z,7.65
2023-08-05T09:23:51.344Z,9.13
2023-08-05T09:26:38.695Z,9.88
2023-08-05T09:29:28.088Z,11.48
2023-08-05T09:32:17.391Z,8.65
2023-08-05T09:35:13.184Z,10.18
2023-08-05T09:38:02.638Z,10.30
2023-08-05T09:40:54.041Z,11.82
2023-08-05T09:43:44.797Z,10.15
2023-08-05T09:46:40.922Z,9.23
2023-08-05T09:49:30.386Z,10.15
2023-08-05T09:52:21.994Z,12.38
2023-08-05T09:55:15.107Z,8.90
2023-08-05T09:58:03.097Z,9.82
2023-08-05T10:00:53.176Z,12.48
2023-08-05T10:03:41.595Z,8.93
2023-08-05T10:06:30.345Z,10.43
2023-08-05T10:09:19.258Z,9.18
2023-08-05T10:12:09.483Z,10.18
2023-08-05T10:14:58.615Z,11.35
2023-08-05T10:17:46.130Z,11.13
2023-08-05T10:20:37.782Z,13.02
2023-08-05T10:23:27.513Z,12.88
2023-08-05T10:26:16.875Z,13.95
2023-08-05T10:29:27.549Z,13.77
2023-08-05T10:32:17.014Z,13.80
2023-08-05T10:35:26.749Z,12.50
2023-08-05T10:38:17.688Z,13.43
2023-08-05T10:41:05.738Z,12.65
2023-08-05T10:43:54.874Z,12.45
2023-08-05T10:46:42.546Z,13.15
2023-08-05T10:49:30.578Z,13.07
2023-08-05T10:52:21.935Z,13.98
2023-08-05T10:55:13.913Z,13.27
2023-08-05T10:58:01.910Z,13.40
2023-08-05T11:00:58.484Z,15.07
2023-08-05T11:03:48.295Z,16.40
2023-08-05T11:06:39.257Z,13.77
2023-08-05T11:09:27.015Z,15.70
2023-08-05T11:12:15.850Z,14.25
2023-08-05T11:15:03.360Z,13.13
2023-08-05T11:17:58.942Z,13.93
2023-08-05T11:20:48.395Z,14.57
2023-08-05T11:23:38.196Z,13.73
2023-08-05T11:26:25.743Z,17.83
2023-08-05T11:29:15.217Z,15.82
2023-08-05T11:32:03.020Z,16.52
2023-08-05T11:34:51.987Z,17.23
2023-08-05T11:37:39.773Z,15.95
2023-08-05T11:40:27.596Z,17.00
2023-08-05T11:43:17.371Z,15.73
2023-08-05T11:46:05.600Z,16.95
2023-08-05T11:49:08.059Z,17.92
2023-08-05T11:51:57.259Z,18.17
2023-08-05T11:54:46.987Z,17.45
2023-08-05T11:57:35.164Z,17.48
2023-08-05T12:00:26.459Z,18.67
2023-08-05T12:03:15.058Z,19.52
2023-08-05T12:06:04.419Z,17.90
2023-08-05T12:08:53.705Z,18.67
2023-08-05T12:11:47.884Z,19.88
2023-08-05T12:14:35.578Z,19.85
2023-08-05T12:17:24.035Z,21.73
2023-08-05T12:20:12.580Z,19.98
2023-08-05T12:23:00.986Z,19.98
2023-08-05T12:25:50.230Z,22.95
2023-08-05T12:28:38.250Z,20.83
2023-08-05T12:31:26.098Z,22.17
2023-08-05T12:34:13.652Z,19.25
2023-08-05T12:37:01.706Z,22.88
2023-08-05T12:39:49.438Z,21.95
2023-08-05T12:42:39.059Z,22.52
2023-08-05T12:45:26.835Z,24.83
2023-08-05T12:48:14.415Z,22.98
2023-08-05T12:51:02.409Z,26.02
2023-08-05T12:53:50.119Z,25.35
2023-08-05T12:56:37.776Z,25.63
2023-08-05T12:59:27.508Z,24.63
2023-08-05T13:02:15.633Z,23.63
2023-08-05T13:05:04.194Z,23.70
2023-08-05T13:07:51.884Z,26.08
2023-08-05T13:10:41.082Z,24.15
2023-08-05T13:13:28.839Z,22.10
2023-08-05T13:16:17.853Z,21.90
2023-08-05T13:19:07.913Z,21.65
2023-08-05T13:21:55.943Z,23.25
2023-08-05T13:24:45.561Z,21.60
2023-08-05T13:27:34.508Z,22.02
2023-08-05T13:30:22.486Z,21.67
2023-08-05T13:33:11.916Z,26.40
2023-08-05T13:35:59.984Z,21.33
2023-08-05T13:38:48.973Z,21.23
2023-08-05T13:41:36.884Z,22.40
2023-08-05T13:44:24.589Z,22.42
2023-08-05T13:47:12.798Z,21.02
2023-08-05T13:50:02.206Z,20.58
2023-08-05T13:52:49.965Z,20.35
2023-08-05T13:55:38.261Z,19.15
2023-08-05T13:58:26.436Z,22.70
2023-08-05T14:01:16.972Z,21.52
2023-08-05T14:04:04.548Z,20.40
2023-08-05T14:06:53.392Z,20.75
2023-08-05T14:09:41.175Z,20.50
2023-08-05T14:12:28.975Z,19.30
2023-08-05T14:15:16.776Z,20.17
2023-08-05T14:18:04.363Z,19.27
2023-08-05T14:20:53.760Z,19.40
2023-08-05T14:23:43.292Z,22.40
2023-08-05T14:26:32.576Z,21.02
2023-08-05T14:29:20.539Z,22.55
2023-08-05T14:32:08.950Z,24.02
2023-08-05T14:35:05.993Z,23.58
2023-08-05T14:37:55.305Z,25.42
2023-08-05T14:40:44.171Z,24.60
2023-08-05T14:43:31.906Z,25.85
2023-08-05T14:46:19.685Z,24.25
2023-08-05T14:49:08.631Z,25.77
2023-08-05T14:51:56.111Z,24.00
2023-08-05T14:54:44.084Z,25.95
2023-08-05T14:57:33.281Z,24.25
2023-08-05T15:00:21.251Z,25.83
2023-08-05T15:03:08.702Z,25.02
2023-08-05T15:05:56.800Z,26.50
2023-08-05T15:08:45.209Z,26.55
2023-08-05T15:11:33.085Z,27.48
2023-08-05T15:14:24.218Z,26.55
2023-08-05T15:17:12.031Z,24.42
2023-08-05T15:19:59.453Z,25.92
2023-08-05T15:22:47.377Z,24.08
2023-08-05T15:25:38.282Z,21.52
2023-08-05T15:28:26.811Z,19.38
2023-08-05T15:31:20.235Z,20.65
2023-08-05T15:34:08.164Z,18.83
2023-08-05T15:36:57.184Z,16.13
2023-08-05T15:39:45.280Z,14.40
2023-08-05T15:42:33.512Z,12.52
2023-08-05T15:45:21.377Z,11.57
2023-08-05T15:48:10.559Z,13.27
2023-08-05T15:51:04.845Z,14.05
2023-08-05T15:53:52.337Z,11.05
2023-08-05T15:56:40.827Z,9.15
2023-08-05T15:59:28.622Z,9.70
2023-08-05T16:02:16.652Z,10.75
2023-08-05T16:05:05.918Z,9.82
2023-08-05T16:07:53.613Z,10.63
2023-08-05T16:10:41.436Z,11.88
2023-08-05T16:13:29.274Z,11.00
2023-08-05T16:16:18.505Z,10.43
2023-08-05T16:19:06.207Z,9.27
2023-08-05T16:21:55.047Z,7.93
2023-08-05T16:24:43.406Z,6.97
2023-08-05T16:27:31.675Z,7.43
2023-08-05T16:30:19.625Z,7.82
2023-08-05T16:33:07.293Z,7.60
2023-08-05T16:35:55.249Z,8.00
2023-08-05T16:38:45.963Z,8.07
2023-08-05T16:41:33.458Z,9.75
2023-08-05T16:44:21.671Z,8.25
2023-08-05T16:47:09.349Z,8.80
2023-08-05T16:49:57.185Z,7.47
2023-08-05T16:52:44.778Z,8.65
2023-08-05T16:55:34.126Z,7.50
2023-08-05T16:58:23.773Z,7.80
2023-08-05T17:01:12.403Z,7.60
2023-08-05T17:03:59.831Z,7.95
2023-08-05T17:06:47.562Z,8.77
2023-08-05T17:09:35.472Z,7.97
2023-08-05T17:12:25.022Z,7.82
2023-08-05T17:15:12.808Z,9.65
2023-08-05T17:18:00.158Z,7.93
2023-08-05T17:20:47.924Z,7.95
2023-08-05T17:23:35.467Z,7.43
2023-08-05T17:26:23.231Z,7.10
2023-08-05T17:29:14.588Z,7.53
2023-08-05T17:32:02.078Z,7.20
2023-08-05T17:34:49.911Z,8.05
2023-08-05T17:37:37.665Z,6.25
2023-08-05T17:40:25.117Z,8.00
2023-08-05T17:43:13.614Z,6.75
2023-08-05T17:46:02.679Z,8.05
2023-08-05T17:48:52.048Z,6.50
2023-08-05T17:51:40.025Z,8.27
2023-08-05T17:54:27.621Z,6.93
2023-08-05T17:57:15.495Z,6.82
2023-08-05T18:00:03.154Z,6.47
2023-08-05T18:02:54.845Z,6.85
2023-08-05T18:05:44.337Z,7.10
2023-08-05T18:08:32.227Z,7.97
2023-08-05T18:11:20.359Z,6.82
2023-08-05T18:14:08.198Z,7.20
2023-08-05T18:16:56.162Z,6.50
2023-08-05T18:19:45.504Z,6.93
2023-08-05T18:22:33.524Z,6.45
2023-08-05T18:25:21.430Z,7.75
2023-08-05T18:28:11.052Z,6.78
2023-08-05T18:30:58.817Z,7.05
2023-08-05T18:33:46.788Z,6.95
2023-08-05T18:36:35.826Z,6.32
2023-08-05T18:39:23.844Z,6.38
2023-08-05T18:42:11.919Z,5.95
2023-08-05T18:45:00.118Z,5.97
2023-08-05T18:47:48.140Z,7.03
2023-08-05T18:50:37.413Z,7.07
2023-08-05T18:53:27.031Z,6.85
2023-08-05T18:56:15.470Z,6.97
2023-08-05T18:59:03.553Z,8.32
2023-08-05T19:01:51.871Z,8.73
2023-08-05T19:04:40.164Z,8.15
2023-08-05T19:07:28.261Z,8.35
2023-08-05T19:10:18.323Z,8.15
2023-08-05T19:13:06.585Z,8.00
2023-08-05T19:16:04.738Z,9.35
2023-08-05T19:18:53.296Z,9.70
2023-08-05T19:21:41.143Z,8.75
2023-08-05T19:24:29.063Z,9.40
2023-08-05T19:27:23.251Z,10.05
2023-08-05T19:30:11.605Z,8.80
2023-08-05T19:32:59.909Z,9.25
2023-08-05T19:35:47.888Z,9.80
2023-08-05T19:38:35.479Z,10.70
2023-08-05T19:41:23.714Z,10.10
2023-08-05T19:44:14.203Z,10.35
2023-08-05T19:47:02.246Z,9.68
2023-08-05T19:49:51.607Z,9.95
2023-08-05T19:52:39.497Z,9.48
2023-08-05T19:55:30.364Z,9.48
2023-08-05T19:58:18.424Z,10.10
2023-08-05T20:01:08.357Z,9.35
2023-08-05T20:03:56.528Z,10.63
2023-08-05T20:06:44.884Z,9.70
2023-08-05T20:09:33.080Z,10.75
2023-08-05T20:12:21.762Z,9.48
2023-08-05T20:15:09.912Z,9.88
2023-08-05T20:17:59.169Z,10.70
2023-08-05T20:20:49.195Z,11.07
2023-08-05T20:23:37.736Z,11.13
2023-08-05T20:26:25.906Z,11.43
2023-08-05T20:29:13.988Z,10.40
2023-08-05T20:32:01.661Z,10.15
2023-08-05T20:34:50.896Z,11.02
2023-08-05T20:37:42.088Z,11.57
2023-08-05T20:40:30.156Z,12.10
2023-08-05T20:43:18.400Z,10.85
2023-08-05T20:46:06.272Z,12.15
2023-08-05T20:48:53.909Z,11.80
2023-08-05T20:51:43.470Z,12.02
2023-08-05T20:54:31.495Z,11.90
2023-08-05T20:57:20.906Z,11.90
2023-08-05T21:00:10.222Z,11.60
2023-08-05T21:02:58.275Z,11.95
2023-08-05T21:05:46.098Z,12.57
2023-08-05T21:08:35.490Z,13.43
2023-08-05T21:11:23.222Z,11.88
2023-08-05T21:14:10.669Z,12.40
2023-08-05T21:16:58.237Z,12.93
2023-08-05T21:19:46.066Z,13.15
2023-08-05T21:22:36.327Z,14.65
2023-08-05T21:25:28.814Z,14.23
2023-08-05T21:28:16.657Z,14.07
2023-08-05T21:31:04.702Z,13.07
2023-08-05T21:33:52.561Z,13.40
2023-08-05T21:36:40.291Z,13.20
2023-08-05T21:39:28.261Z,13.07
2023-08-05T21:42:18.042Z,12.30
2023-08-05T21:45:06.123Z,14.30
2023-08-05T21:47:53.890Z,13.45
2023-08-05T21:50:41.948Z,12.65
2023-08-05T21:53:29.770Z,11.55
2023-08-05T21:56:17.406Z,12.07
2023-08-05T21:59:07.066Z,10.43
2023-08-05T22:01:54.768Z,10.63
2023-08-05T22:04:44.874Z,10.73
2023-08-05T22:07:32.532Z,12.32
2023-08-05T22:10:20.476Z,10.88
2023-08-05T22:13:08.102Z,9.90
2023-08-05T22:15:57.545Z,10.52
2023-08-05T22:18:45.259Z,10.93
2023-08-05T22:21:33.092Z,10.57
2023-08-05T22:24:34.405Z,11.13
2023-08-05T22:27:27.526Z,10.35
2023-08-05T22:30:15.385Z,10.25
2023-08-05T22:33:04.757Z,9.85
2023-08-05T22:35:55.640Z,10.50
2023-08-05T22:38:43.554Z,8.95
2023-08-05T22:41:31.133Z,9.70
2023-08-05T22:44:18.790Z,8.45
2023-08-05T22:47:07.428Z,9.77
2023-08-05T22:49:56.809Z,9.82
2023-08-05T22:52:44.577Z,10.43
2023-08-05T22:55:36.432Z,10.30
2023-08-05T22:58:24.123Z,9.77
2023-08-05T23:01:12.199Z,8.75
2023-08-05T23:04:00.251Z,8.55
2023-08-05T23:06:49.963Z,7.78
2023-08-05T23:09:37.404Z,7.38
2023-08-05T23:12:25.244Z,7.75
2023-08-05T23:15:12.938Z,6.80
2023-08-05T23:18:00.514Z,6.00
2023-08-05T23:20:48.447Z,6.70
2023-08-05T23:23:38.102Z,5.93
2023-08-05T23:26:25.805Z,5.63
2023-08-05T23:45:51.847Z,4.10
2023-08-05T23:48:39.504Z,3.85
2023-08-05T23:51:26.867Z,3.65
2023-08-05T23:54:14.078Z,5.20
2023-08-05T23:57:01.668Z,3.78
2023-08-05T23:59:48.884Z,3.90
